Time;durP1;ratioP1;P1;durP2;ratioP2;P2;SDS_P1;SDS_P2;PMS_P1;PMS_P2;Temp;Humidity;BMP_temperature;BMP_pressure;BME280_temperature;BME280_humidity;BME280_pressure;Samples;Min_cycle;Max_cycle;Signal;HPM_P1;HPM_P2
2021/09/27 00:01:00;;;;;;;20.67;16.42;;;14.10;99.90;;;;;;4994012;28;20375;-80
2021/09/27 00:03:27;;;;;;;19.33;15.68;;;14.00;99.90;;;;;;5011779;28;20475;-80
2021/09/27 00:05:54;;;;;;;18.85;14.27;;;14.00;99.90;;;;;;5011686;28;20041;-80
2021/09/27 00:08:20;;;;;;;19.90;15.13;;;13.90;99.90;;;;;;5005337;28;20060;-80
2021/09/27 00:10:54;;;;;;;22.38;15.10;;;13.90;99.90;;;;;;5031363;28;20074;-80
2021/09/27 00:13:21;;;;;;;20.38;17.45;;;13.90;99.90;;;;;;5031425;28;20065;-80
2021/09/27 00:15:49;;;;;;;23.60;17.13;;;13.90;99.90;;;;;;5000421;28;20037;-80
2021/09/27 00:18:16;;;;;;;17.38;14.75;;;13.90;99.90;;;;;;4994347;28;20091;-80
2021/09/27 00:20:48;;;;;;;22.73;16.60;;;13.90;99.90;;;;;;5012681;28;20470;-80
2021/09/27 00:23:15;;;;;;;19.38;15.90;;;13.80;99.90;;;;;;5015432;28;20026;-80
2021/09/27 00:25:41;;;;;;;21.10;16.50;;;13.80;99.90;;;;;;5023973;28;20029;-80
2021/09/27 00:28:07;;;;;;;21.77;16.90;;;13.80;99.90;;;;;;5017192;28;20371;-80
2021/09/27 00:30:33;;;;;;;18.70;15.27;;;13.80;99.90;;;;;;5017186;28;20033;-80
2021/09/27 00:32:58;;;;;;;24.70;17.67;;;13.80;99.90;;;;;;5017066;28;20025;-80
2021/09/27 00:35:29;;;;;;;24.15;17.33;;;13.80;99.90;;;;;;5012714;28;20030;-80
2021/09/27 00:37:55;;;;;;;20.88;17.05;;;13.90;99.90;;;;;;4997453;28;20033;-80
2021/09/27 00:40:25;;;;;;;27.00;17.27;;;13.80;99.90;;;;;;4997380;28;20099;-81
2021/09/27 00:42:52;;;;;;;22.52;16.50;;;13.80;99.90;;;;;;4997373;28;20029;-80
2021/09/27 00:45:21;;;;;;;20.27;15.93;;;13.70;99.90;;;;;;4997160;28;20025;-80
2021/09/27 00:47:47;;;;;;;19.52;15.60;;;13.70;99.90;;;;;;5016900;28;20036;-80
2021/09/27 00:50:16;;;;;;;16.65;13.77;;;13.60;99.90;;;;;;5016907;28;20029;-81
2021/09/27 00:52:42;;;;;;;21.70;14.48;;;13.60;99.90;;;;;;5034330;28;20032;-80
2021/09/27 00:55:11;;;;;;;15.30;11.95;;;13.60;99.90;;;;;;5016574;28;20026;-80
2021/09/27 00:57:37;;;;;;;12.13;10.52;;;13.50;99.90;;;;;;5017759;28;20025;-80
2021/09/27 01:00:05;;;;;;;13.52;10.68;;;13.50;99.90;;;;;;4997080;28;20026;-80
2021/09/27 01:02:31;;;;;;;11.07;9.30;;;13.50;99.90;;;;;;5014580;28;20117;-80
2021/09/27 01:04:57;;;;;;;16.63;11.27;;;13.50;99.90;;;;;;4996937;28;20419;-80
2021/09/27 01:07:36;;;;;;;16.70;10.68;;;13.40;99.90;;;;;;5014047;28;20025;-80
2021/09/27 01:10:14;;;;;;;16.95;11.40;;;13.40;99.90;;;;;;5016281;28;20034;-80
2021/09/27 01:12:55;;;;;;;14.15;11.07;;;13.40;99.90;;;;;;5016303;28;20025;-81
2021/09/27 01:15:55;;;;;;;17.67;12.68;;;13.40;99.90;;;;;;5034001;28;20032;-80
2021/09/27 01:19:00;;;;;;;14.27;12.50;;;13.40;99.90;;;;;;5016177;28;20032;-80
2021/09/27 01:22:02;;;;;;;20.75;15.45;;;13.40;99.90;;;;;;5016202;28;20026;-80
2021/09/27 01:24:52;;;;;;;19.67;15.75;;;13.50;99.90;;;;;;5015882;28;20078;-80
2021/09/27 01:28:05;;;;;;;17.55;13.77;;;13.50;99.90;;;;;;5004747;28;20026;-80
2021/09/27 01:30:56;;;;;;;16.98;13.75;;;13.50;99.90;;;;;;4960374;28;20110;-80
2021/09/27 01:33:35;;;;;;;18.60;14.48;;;13.50;99.90;;;;;;5013795;28;20029;-80
2021/09/27 01:36:25;;;;;;;21.63;14.10;;;13.50;99.90;;;;;;5014852;28;20117;-80
2021/09/27 01:39:02;;;;;;;19.05;15.23;;;13.50;99.90;;;;;;5025885;28;20030;-80
2021/09/27 01:41:54;;;;;;;19.25;14.20;;;13.40;99.90;;;;;;5015820;28;20075;-80
2021/09/27 01:44:41;;;;;;;19.38;14.55;;;13.50;99.90;;;;;;5033416;28;20024;-80
2021/09/27 01:47:30;;;;;;;25.23;15.50;;;13.50;99.90;;;;;;5022293;28;20030;-80
2021/09/27 01:50:11;;;;;;;18.13;14.85;;;13.50;99.90;;;;;;5013674;28;20483;-81
2021/09/27 01:52:48;;;;;;;19.10;15.23;;;13.50;99.90;;;;;;4995877;28;20121;-80
2021/09/27 01:55:33;;;;;;;27.38;18.77;;;13.40;99.90;;;;;;4995871;28;20052;-80
2021/09/27 01:58:15;;;;;;;26.17;19.10;;;13.40;99.90;;;;;;5028510;28;20057;-80
2021/09/27 02:00:48;;;;;;;23.85;17.70;;;13.40;99.90;;;;;;5033184;28;20105;-80
2021/09/27 02:03:16;;;;;;;21.98;17.48;;;13.40;99.90;;;;;;5015672;28;20536;-80
2021/09/27 02:06:05;;;;;;;20.90;14.93;;;13.40;99.90;;;;;;5032910;28;20029;-80
2021/09/27 02:08:57;;;;;;;18.75;13.95;;;13.40;99.90;;;;;;4998527;28;20084;-80
2021/09/27 02:11:30;;;;;;;20.63;15.38;;;13.40;99.90;;;;;;5005015;28;20066;-80
2021/09/27 02:14:13;;;;;;;23.15;16.50;;;13.40;99.90;;;;;;4995549;28;20025;-80
2021/09/27 02:17:08;;;;;;;21.17;15.30;;;13.50;99.90;;;;;;5013104;28;20101;-80
2021/09/27 02:19:57;;;;;;;30.27;18.35;;;13.50;99.90;;;;;;5013315;28;20493;-79
2021/09/27 02:22:39;;;;;;;21.30;16.83;;;13.50;99.90;;;;;;5014321;28;20029;-80
2021/09/27 02:25:10;;;;;;;17.80;15.50;;;13.50;99.90;;;;;;5012854;28;20021;-80
2021/09/27 02:27:37;;;;;;;20.17;15.18;;;13.50;99.90;;;;;;5013441;28;20034;-80
2021/09/27 02:30:05;;;;;;;19.42;15.88;;;13.50;99.90;;;;;;5012994;28;20133;-80
2021/09/27 02:33:01;;;;;;;21.30;15.13;;;13.50;99.90;;;;;;5012658;28;20044;-80
2021/09/27 02:35:33;;;;;;;20.05;15.82;;;13.50;99.90;;;;;;4995028;28;20022;-81
2021/09/27 02:38:21;;;;;;;22.83;15.70;;;13.50;99.90;;;;;;5016375;28;20056;-80
2021/09/27 02:40:59;;;;;;;23.02;17.65;;;13.50;99.90;;;;;;5014638;28;20093;-80
2021/09/27 02:43:25;;;;;;;21.13;16.65;;;13.50;99.90;;;;;;5014226;28;20037;-80
2021/09/27 02:45:51;;;;;;;22.10;17.20;;;13.50;99.90;;;;;;5014399;28;20056;-80
2021/09/27 02:48:32;;;;;;;23.33;16.00;;;13.50;99.90;;;;;;5028720;28;20168;-80
2021/09/27 02:50:59;;;;;;;20.27;16.23;;;13.50;99.90;;;;;;5012931;28;20113;-80
2021/09/27 02:53:24;;;;;;;22.02;15.95;;;13.50;99.90;;;;;;5012605;28;20034;-80
2021/09/27 02:55:50;;;;;;;19.30;15.40;;;13.60;99.90;;;;;;4994664;28;20061;-80
2021/09/27 02:58:36;;;;;;;21.98;17.00;;;13.60;99.90;;;;;;5012794;28;20375;-80
2021/09/27 03:01:06;;;;;;;24.98;19.63;;;13.60;99.90;;;;;;5012417;28;20028;-80
2021/09/27 03:03:47;;;;;;;26.00;18.25;;;13.70;99.90;;;;;;5012417;28;20152;-80
2021/09/27 03:06:18;;;;;;;24.10;18.15;;;13.70;99.90;;;;;;4994903;28;20029;-79
2021/09/27 03:09:02;;;;;;;22.05;18.20;;;13.70;99.90;;;;;;5012914;28;20160;-79
2021/09/27 03:11:49;;;;;;;26.30;18.85;;;13.80;99.90;;;;;;5031420;28;20025;-79
2021/09/27 03:14:24;;;;;;;26.35;18.98;;;13.80;99.90;;;;;;5031934;28;20028;-79
2021/09/27 03:17:24;;;;;;;29.85;21.30;;;13.80;99.90;;;;;;5014186;28;20394;-80
2021/09/27 03:20:08;;;;;;;26.85;21.75;;;13.80;99.90;;;;;;5030987;28;20029;-80
2021/09/27 03:22:45;;;;;;;33.70;24.67;;;13.80;99.90;;;;;;5014154;28;20033;-80
2021/09/27 03:25:32;;;;;;;37.75;25.88;;;13.90;99.90;;;;;;5031706;28;20441;-80
2021/09/27 03:28:19;;;;;;;27.58;21.92;;;14.00;99.90;;;;;;5014099;28;20034;-79
2021/09/27 03:31:04;;;;;;;32.30;23.85;;;14.00;99.90;;;;;;5019486;28;20033;-80
2021/09/27 03:33:50;;;;;;;32.85;24.90;;;14.10;99.90;;;;;;4994378;28;20111;-79
2021/09/27 03:36:28;;;;;;;36.38;23.20;;;14.10;99.90;;;;;;4994357;28;20486;-79
2021/09/27 03:39:08;;;;;;;30.77;22.13;;;14.20;99.90;;;;;;4994429;28;20045;-80
2021/09/27 03:41:45;;;;;;;32.83;20.17;;;14.20;99.90;;;;;;5027437;28;20029;-79
2021/09/27 03:44:42;;;;;;;35.22;24.50;;;14.30;99.90;;;;;;5013822;28;20391;-80
2021/09/27 03:47:22;;;;;;;35.67;22.05;;;14.20;99.90;;;;;;5014037;28;20021;-80
2021/09/27 03:50:25;;;;;;;32.08;22.40;;;14.30;99.90;;;;;;5013992;28;20021;-80
2021/09/27 03:52:58;;;;;;;41.33;23.58;;;14.20;99.90;;;;;;4994141;28;20033;-80
2021/09/27 03:55:50;;;;;;;29.35;21.63;;;14.30;99.90;;;;;;5014015;28;20026;-80
2021/09/27 03:58:25;;;;;;;31.58;22.48;;;14.20;99.90;;;;;;5001693;28;20049;-80
2021/09/27 04:01:17;;;;;;;31.02;22.00;;;14.30;99.90;;;;;;5017631;28;20113;-80
2021/09/27 04:04:12;;;;;;;29.45;21.23;;;14.30;99.90;;;;;;5035340;28;20029;-80
2021/09/27 04:06:41;;;;;;;32.67;22.25;;;14.30;99.90;;;;;;5035476;28;20397;-80
2021/09/27 04:09:35;;;;;;;31.17;22.40;;;14.30;99.90;;;;;;5009646;28;20516;-80
2021/09/27 04:12:26;;;;;;;32.25;20.92;;;14.30;99.90;;;;;;4997859;28;20483;-80
2021/09/27 04:15:00;;;;;;;27.70;20.08;;;14.30;99.90;;;;;;4997769;28;20030;-80
2021/09/27 04:17:26;;;;;;;29.92;21.50;;;14.40;99.90;;;;;;5015486;28;20033;-79
2021/09/27 04:20:07;;;;;;;35.50;23.70;;;14.40;99.90;;;;;;5008536;28;20026;-79
2021/09/27 04:22:41;;;;;;;32.45;23.33;;;14.40;99.90;;;;;;5017440;28;20029;-80
2021/09/27 04:25:40;;;;;;;35.80;24.85;;;14.50;99.90;;;;;;5017240;28;20511;-80
2021/09/27 04:28:20;;;;;;;50.65;30.85;;;14.50;99.90;;;;;;5035100;28;20032;-79
2021/09/27 04:31:00;;;;;;;44.28;28.58;;;14.50;99.90;;;;;;5019042;28;20383;-80
2021/09/27 04:33:42;;;;;;;36.72;26.60;;;14.60;99.90;;;;;;4997491;28;20030;-80
2021/09/27 04:36:20;;;;;;;39.13;27.00;;;14.60;99.90;;;;;;4997508;28;20115;-79
2021/09/27 04:38:47;;;;;;;38.20;27.80;;;14.60;99.90;;;;;;4997624;28;20032;-79
2021/09/27 04:41:43;;;;;;;36.83;25.42;;;14.60;99.90;;;;;;5013394;28;20444;-80
2021/09/27 04:44:30;;;;;;;42.20;27.40;;;14.60;99.90;;;;;;5034578;28;20021;-80
2021/09/27 04:47:06;;;;;;;42.80;28.95;;;14.60;99.90;;;;;;5034672;28;20489;-79
2021/09/27 04:49:53;;;;;;;41.20;27.27;;;14.60;99.90;;;;;;5016568;28;20556;-80
2021/09/27 04:52:52;;;;;;;38.53;26.13;;;14.60;99.90;;;;;;5016693;28;20025;-80
2021/09/27 04:55:32;;;;;;;44.28;29.42;;;14.60;99.90;;;;;;5034354;28;20023;-80
2021/09/27 04:58:20;;;;;;;37.72;25.52;;;14.60;99.90;;;;;;5034463;28;20135;-79
2021/09/27 05:01:23;;;;;;;43.35;27.95;;;14.70;99.90;;;;;;5010163;28;20022;-79
2021/09/27 05:04:17;;;;;;;62.87;35.97;;;14.70;99.90;;;;;;4996774;28;20026;-79
2021/09/27 05:06:54;;;;;;;68.32;40.95;;;14.80;99.90;;;;;;4996355;28;20057;-80
2021/09/27 05:09:32;;;;;;;60.05;36.95;;;14.80;99.90;;;;;;4996921;28;20088;-79
2021/09/27 05:12:26;;;;;;;53.13;36.05;;;14.90;99.90;;;;;;5009555;28;20402;-79
2021/09/27 05:14:58;;;;;;;59.83;36.03;;;14.90;99.90;;;;;;5003904;28;20030;-80
2021/09/27 05:17:38;;;;;;;50.97;34.47;;;14.90;99.90;;;;;;5014388;28;20029;-79
2021/09/27 05:20:16;;;;;;;68.70;40.65;;;14.90;99.90;;;;;;4996753;28;20077;-80
2021/09/27 05:23:28;;;;;;;78.40;47.13;;;15.00;99.90;;;;;;5012385;28;20548;-80
2021/09/27 05:26:15;;;;;;;89.55;52.15;;;15.10;99.90;;;;;;5014484;28;20033;-79
2021/09/27 05:28:55;;;;;;;78.45;49.22;;;15.20;99.90;;;;;;5014077;28;20026;-79
2021/09/27 05:31:26;;;;;;;73.95;45.72;;;15.20;99.90;;;;;;4996470;28;20072;-79
2021/09/27 05:34:27;;;;;;;75.93;44.60;;;15.30;99.90;;;;;;4996222;28;20029;-79
2021/09/27 05:37:13;;;;;;;69.50;42.67;;;15.30;99.90;;;;;;5002011;28;20033;-79
2021/09/27 05:39:44;;;;;;;62.70;41.20;;;15.40;99.90;;;;;;5033803;28;20017;-80
2021/09/27 05:42:47;;;;;;;64.00;38.05;;;15.40;99.90;;;;;;5015812;28;20025;-80
2021/09/27 05:45:50;;;;;;;59.47;37.03;;;15.40;99.90;;;;;;5024690;28;20493;-80
2021/09/27 05:48:30;;;;;;;57.72;37.08;;;15.50;99.90;;;;;;4996314;28;20033;-79
2021/09/27 05:50:55;;;;;;;56.13;35.15;;;15.50;99.90;;;;;;5013714;28;20037;-79
2021/09/27 05:53:29;;;;;;;60.28;38.55;;;15.50;99.90;;;;;;5013614;28;20029;-80
2021/09/27 05:56:13;;;;;;;70.95;43.75;;;15.50;99.90;;;;;;5024345;28;20025;-79
2021/09/27 05:58:54;;;;;;;83.88;48.70;;;15.50;99.90;;;;;;5033278;28;20132;-79
2021/09/27 06:02:17;;;;;;;66.53;40.72;;;15.60;99.90;;;;;;5013606;28;20029;-80
2021/09/27 06:05:09;;;;;;;81.53;44.08;;;15.60;99.90;;;;;;5032480;28;20025;-80
2021/09/27 06:07:57;;;;;;;94.32;54.75;;;15.60;99.90;;;;;;5012017;28;20022;-80
2021/09/27 06:10:59;;;;;;;95.20;59.22;;;15.70;99.90;;;;;;5002457;28;20084;-80
2021/09/27 06:13:32;;;;;;;103.65;58.20;;;15.80;99.90;;;;;;5013113;28;20022;-81
2021/09/27 06:16:21;;;;;;;102.10;58.97;;;15.80;99.90;;;;;;5018241;28;20033;-80
2021/09/27 06:19:07;;;;;;;113.25;64.15;;;15.90;99.90;;;;;;5013997;28;20032;-81
2021/09/27 06:21:38;;;;;;;93.60;57.83;;;16.00;99.90;;;;;;5021381;28;20034;-80
2021/09/27 06:24:44;;;;;;;110.80;64.13;;;16.00;99.90;;;;;;4995173;28;20036;-80
2021/09/27 06:27:19;;;;;;;103.32;58.97;;;16.00;99.90;;;;;;4995161;28;20508;-81
2021/09/27 06:29:59;;;;;;;108.10;62.17;;;16.10;99.90;;;;;;4995332;28;20619;-81
2021/09/27 06:32:40;;;;;;;105.50;60.92;;;16.00;99.90;;;;;;5012881;28;20487;-81
2021/09/27 06:35:11;;;;;;;96.30;57.85;;;16.00;99.90;;;;;;4995138;28;20125;-81
2021/09/27 06:37:37;;;;;;;97.20;59.15;;;16.00;99.90;;;;;;5012686;28;20704;-82
2021/09/27 06:40:08;;;;;;;87.72;52.92;;;16.00;99.90;;;;;;5012958;28;20364;-81
2021/09/27 06:42:34;;;;;;;81.05;49.15;;;16.00;99.90;;;;;;5025433;28;20108;-81
2021/09/27 06:44:59;;;;;;;76.32;45.15;;;16.00;99.90;;;;;;5014432;28;20136;-81
2021/09/27 06:47:25;;;;;;;70.70;45.05;;;16.00;99.90;;;;;;5014672;28;20029;-81
2021/09/27 06:49:51;;;;;;;83.20;53.13;;;16.00;99.90;;;;;;5032365;28;20096;-81
2021/09/27 06:52:17;;;;;;;84.25;45.42;;;16.00;99.90;;;;;;5023740;28;20037;-81
2021/09/27 06:54:43;;;;;;;79.72;48.67;;;16.00;99.90;;;;;;5012364;28;20060;-81
2021/09/27 06:57:09;;;;;;;69.43;45.42;;;16.00;99.90;;;;;;4994766;28;20422;-81
2021/09/27 06:59:36;;;;;;;77.85;48.50;;;16.00;99.90;;;;;;5012513;28;20026;-82
2021/09/27 07:02:02;;;;;;;84.88;52.47;;;16.10;99.90;;;;;;4997466;28;20041;-81
2021/09/27 07:04:28;;;;;;;89.65;53.58;;;16.00;99.90;;;;;;5014107;28;20136;-82
2021/09/27 07:06:53;;;;;;;77.63;49.08;;;16.00;99.90;;;;;;5014220;28;20083;-82
2021/09/27 07:09:19;;;;;;;92.65;51.22;;;16.10;99.90;;;;;;5012547;28;20079;-82
2021/09/27 07:11:45;;;;;;;77.57;47.22;;;16.10;99.90;;;;;;5014124;28;20033;-82
2021/09/27 07:14:11;;;;;;;98.47;55.58;;;16.10;99.90;;;;;;5013939;28;20032;-82
2021/09/27 07:16:37;;;;;;;78.00;49.03;;;16.20;99.90;;;;;;5031957;28;20024;-81
2021/09/27 07:19:05;;;;;;;101.35;60.40;;;16.20;99.90;;;;;;5012371;28;20466;-81
2021/09/27 07:21:31;;;;;;;101.00;62.03;;;16.20;99.90;;;;;;5031773;28;20014;-82
2021/09/27 07:23:57;;;;;;;107.88;64.47;;;16.30;99.90;;;;;;5013895;28;20665;-81
2021/09/27 07:26:22;;;;;;;113.35;66.82;;;16.30;99.90;;;;;;5031790;28;20096;-81
2021/09/27 07:28:52;;;;;;;99.45;61.97;;;16.40;99.90;;;;;;5031644;28;20033;-81
2021/09/27 07:31:19;;;;;;;102.53;62.03;;;16.40;99.90;;;;;;4996151;28;20117;-81
2021/09/27 07:33:45;;;;;;;109.25;64.45;;;16.40;99.90;;;;;;4994046;28;20065;-81
2021/09/27 07:36:11;;;;;;;127.22;73.10;;;16.50;99.90;;;;;;5011923;28;20034;-81
2021/09/27 07:38:37;;;;;;;97.50;58.20;;;16.60;99.90;;;;;;5011980;28;20022;-81
2021/09/27 07:41:03;;;;;;;110.38;68.03;;;16.50;99.90;;;;;;5006313;28;20076;-82
2021/09/27 07:43:29;;;;;;;101.28;59.80;;;16.60;99.90;;;;;;5023688;28;20478;-82
2021/09/27 07:45:55;;;;;;;87.97;53.38;;;16.70;99.90;;;;;;5012023;28;20124;-80
2021/09/27 07:48:21;;;;;;;94.22;58.20;;;16.70;99.90;;;;;;4994176;28;20025;-81
2021/09/27 07:50:50;;;;;;;86.90;55.00;;;16.80;99.90;;;;;;5000678;28;20048;-81
2021/09/27 07:53:17;;;;;;;85.82;55.72;;;16.90;99.90;;;;;;5013682;28;20026;-81
2021/09/27 07:55:43;;;;;;;101.25;62.30;;;16.90;99.90;;;;;;5031308;28;20116;-81
2021/09/27 07:58:08;;;;;;;115.03;66.25;;;17.00;99.90;;;;;;5013841;28;20626;-81
2021/09/27 08:00:36;;;;;;;98.45;61.67;;;17.10;99.90;;;;;;5028996;28;20022;-80
2021/09/27 08:03:01;;;;;;;103.00;64.07;;;17.10;99.90;;;;;;5024964;28;20041;-81
2021/09/27 08:05:30;;;;;;;101.43;61.70;;;17.20;99.90;;;;;;5031193;28;20035;-81
2021/09/27 08:07:57;;;;;;;88.72;56.00;;;17.10;99.90;;;;;;5031493;28;20402;-80
2021/09/27 08:10:25;;;;;;;95.72;60.97;;;17.20;99.90;;;;;;5031456;28;20459;-81
2021/09/27 08:12:51;;;;;;;123.88;67.50;;;17.20;99.90;;;;;;5013085;28;20470;-82
2021/09/27 08:15:20;;;;;;;109.72;65.45;;;17.20;99.90;;;;;;5023983;28;20029;-81
2021/09/27 08:17:48;;;;;;;116.78;69.53;;;17.20;99.90;;;;;;5013540;28;20680;-82
2021/09/27 08:20:15;;;;;;;106.03;66.65;;;17.20;99.90;;;;;;5031235;28;20013;-82
2021/09/27 08:22:41;;;;;;;112.28;68.07;;;17.30;99.90;;;;;;5017967;28;20118;-80
2021/09/27 08:25:08;;;;;;;103.97;68.40;;;17.30;99.90;;;;;;5011183;28;20057;-81
2021/09/27 08:27:34;;;;;;;130.45;76.72;;;17.30;99.90;;;;;;4993978;28;20025;-81
2021/09/27 08:29:59;;;;;;;128.65;74.75;;;17.30;99.90;;;;;;5011352;28;20030;-81
2021/09/27 08:32:25;;;;;;;123.72;75.43;;;17.40;99.90;;;;;;5018812;28;20044;-80
2021/09/27 08:34:53;;;;;;;133.93;80.85;;;17.40;99.90;;;;;;5030984;28;20104;-81
2021/09/27 08:37:21;;;;;;;137.48;79.25;;;17.50;99.90;;;;;;5013482;28;20113;-82
2021/09/27 08:39:48;;;;;;;140.10;81.55;;;17.50;99.90;;;;;;5013256;28;20549;-80
2021/09/27 08:42:21;;;;;;;119.13;73.82;;;17.40;99.90;;;;;;5029239;28;20030;-80
2021/09/27 08:45:01;;;;;;;;;;;17.50;99.90;;;;;;4997574;28;20060;-81
2021/09/27 08:47:30;;;;;;;128.35;76.25;;;17.50;99.90;;;;;;5014856;28;19913;-81
2021/09/27 08:50:07;;;;;;;132.93;80.05;;;17.40;99.90;;;;;;5014783;28;20026;-80
2021/09/27 08:52:36;;;;;;;134.38;79.60;;;17.50;99.90;;;;;;5017343;28;20025;-80
2021/09/27 08:55:09;;;;;;;123.03;78.72;;;17.60;99.90;;;;;;5034042;28;20451;-80
2021/09/27 08:57:56;;;;;;;131.20;80.20;;;17.60;99.90;;;;;;5016860;28;20017;-80
2021/09/27 09:00:40;;;;;;;136.98;79.25;;;17.50;99.90;;;;;;5034490;28;20068;-81
2021/09/27 09:03:26;;;;;;;128.55;77.70;;;17.50;99.90;;;;;;5030877;28;20087;-81
2021/09/27 09:06:16;;;;;;;122.82;76.45;;;17.60;99.90;;;;;;5034198;28;20021;-81
2021/09/27 09:09:00;;;;;;;135.55;83.00;;;17.60;99.90;;;;;;4979081;28;20064;-80
2021/09/27 09:11:47;;;;;;;126.07;78.72;;;17.50;99.90;;;;;;5034082;28;20030;-79
2021/09/27 09:14:16;;;;;;;130.23;76.10;;;17.60;99.90;;;;;;5005088;28;20038;-80
2021/09/27 09:16:44;;;;;;;122.57;76.65;;;17.70;99.90;;;;;;5020866;28;20509;-79
2021/09/27 09:19:16;;;;;;;120.75;76.57;;;17.80;99.90;;;;;;5033943;28;20033;-80
2021/09/27 09:21:52;;;;;;;104.78;69.60;;;17.80;99.90;;;;;;5016284;28;20022;-80
2021/09/27 09:24:28;;;;;;;132.63;81.43;;;17.90;99.90;;;;;;5024493;28;20030;-80
2021/09/27 09:27:01;;;;;;;117.25;73.63;;;18.00;99.90;;;;;;4996560;28;20022;-80
2021/09/27 09:29:38;;;;;;;117.72;76.35;;;18.00;99.90;;;;;;5014039;28;20510;-80
2021/09/27 09:32:25;;;;;;;115.35;73.03;;;18.00;99.90;;;;;;5013977;28;20056;-80
2021/09/27 09:35:11;;;;;;;103.45;68.88;;;18.20;99.90;;;;;;5006333;28;20396;-80
2021/09/27 09:37:40;;;;;;;116.10;69.40;;;18.10;99.90;;;;;;5033812;28;20033;-79
2021/09/27 09:40:26;;;;;;;99.93;67.18;;;18.00;99.90;;;;;;5033717;28;20100;-80
2021/09/27 09:43:03;;;;;;;109.55;68.68;;;18.40;99.90;;;;;;5015273;28;20120;-80
2021/09/27 09:45:34;;;;;;;97.50;65.32;;;18.20;99.90;;;;;;5003416;28;20032;-80
2021/09/27 09:48:36;;;;;;;92.93;64.65;;;18.40;99.90;;;;;;5013863;28;20022;-80
2021/09/27 09:51:22;;;;;;;90.88;61.35;;;18.50;99.90;;;;;;4943395;28;20023;-79
2021/09/27 09:54:08;;;;;;;92.10;62.63;;;18.90;99.90;;;;;;4994251;28;20034;-80
2021/09/27 09:56:36;;;;;;;87.18;58.83;;;18.90;99.90;;;;;;5016819;28;20044;-80
2021/09/27 09:59:15;;;;;;;79.28;56.75;;;18.90;99.90;;;;;;5044736;28;20033;-79
2021/09/27 10:01:41;;;;;;;79.03;56.55;;;19.10;99.90;;;;;;5052287;28;20128;-79
2021/09/27 10:04:09;;;;;;;76.68;55.58;;;19.30;99.90;;;;;;5033873;28;20116;-79
2021/09/27 10:06:47;;;;;;;77.70;53.65;;;19.30;99.90;;;;;;5037760;28;20036;-79
2021/09/27 10:09:25;;;;;;;72.60;51.95;;;19.50;99.90;;;;;;5021797;28;20028;-79
2021/09/27 10:11:54;;;;;;;66.32;50.75;;;19.60;99.90;;;;;;4995589;28;20022;-78
2021/09/27 10:14:33;;;;;;;68.32;48.92;;;19.60;99.90;;;;;;4995230;28;20116;-79
2021/09/27 10:17:11;;;;;;;60.47;44.55;;;19.70;99.90;;;;;;5015670;28;20026;-80
2021/09/27 10:19:47;;;;;;;64.68;45.90;;;19.70;99.90;;;;;;4995499;28;20030;-80
2021/09/27 10:22:19;;;;;;;60.58;46.45;;;19.90;99.90;;;;;;5012821;28;20394;-80
2021/09/27 10:24:48;;;;;;;61.53;46.30;;;19.70;99.90;;;;;;5012660;28;20080;-79
2021/09/27 10:27:43;;;;;;;72.60;49.03;;;19.80;99.90;;;;;;5026776;28;20091;-80
2021/09/27 10:30:14;;;;;;;78.57;50.28;;;19.90;99.90;;;;;;5036239;28;20420;-80
2021/09/27 10:32:45;;;;;;;73.82;48.35;;;19.90;99.90;;;;;;5034390;28;20555;-80
2021/09/27 10:35:40;;;;;;;61.88;47.13;;;20.10;99.90;;;;;;5034227;28;20078;-79
2021/09/27 10:38:13;;;;;;;61.90;44.58;;;20.20;99.90;;;;;;5018651;28;20022;-80
2021/09/27 10:40:40;;;;;;;67.90;46.03;;;20.20;99.90;;;;;;5012747;28;20430;-79
2021/09/27 10:43:10;;;;;;;66.30;43.80;;;20.40;99.90;;;;;;5012412;28;20029;-81
2021/09/27 10:45:39;;;;;;;55.90;42.88;;;20.30;99.90;;;;;;5007854;28;20029;-80
2021/09/27 10:48:06;;;;;;;61.38;45.53;;;20.50;99.90;;;;;;5014601;28;20031;-80
2021/09/27 10:51:03;;;;;;;52.28;39.50;;;20.40;99.90;;;;;;5014643;28;20026;-80
2021/09/27 10:53:32;;;;;;;50.83;38.20;;;20.60;99.90;;;;;;4997197;28;20041;-80
2021/09/27 10:56:27;;;;;;;52.78;37.70;;;20.80;99.90;;;;;;5012159;28;20021;-78
2021/09/27 10:58:59;;;;;;;45.88;36.25;;;20.90;99.90;;;;;;5012411;28;20030;-79
2021/09/27 11:01:43;;;;;;;44.22;37.78;;;20.90;99.90;;;;;;4994708;28;20470;-80
2021/09/27 11:04:17;;;;;;;41.33;33.90;;;21.10;99.90;;;;;;5046587;28;20574;-80
2021/09/27 11:06:53;;;;;;;50.55;34.38;;;21.40;99.90;;;;;;5014349;28;20029;-81
2021/09/27 11:09:25;;;;;;;48.50;33.00;;;21.50;99.90;;;;;;5014143;28;20056;-80
2021/09/27 11:11:56;;;;;;;43.53;34.63;;;21.40;99.90;;;;;;5031870;28;20084;-80
2021/09/27 11:14:39;;;;;;;58.17;38.40;;;21.40;99.90;;;;;;5012205;28;20028;-80
2021/09/27 11:17:14;;;;;;;42.42;35.53;;;21.40;99.90;;;;;;4994635;28;20033;-80
2021/09/27 11:19:42;;;;;;;49.83;39.25;;;21.50;99.90;;;;;;4994543;28;20033;-79
2021/09/27 11:22:13;;;;;;;46.92;35.53;;;21.40;99.90;;;;;;5012025;28;20033;-80
2021/09/27 11:24:42;;;;;;;48.72;36.28;;;21.10;99.90;;;;;;4994817;28;20026;-79
2021/09/27 11:27:16;;;;;;;39.58;33.60;;;21.30;99.90;;;;;;5031542;28;20460;-80
2021/09/27 11:30:17;;;;;;;34.72;28.52;;;21.30;99.90;;;;;;5031635;28;20025;-80
2021/09/27 11:32:54;;;;;;;37.97;29.58;;;21.70;99.90;;;;;;5013623;28;20033;-84
2021/09/27 11:35:35;;;;;;;41.08;28.08;;;21.80;99.90;;;;;;5021062;28;20021;-82
2021/09/27 11:38:06;;;;;;;29.92;24.08;;;21.80;99.90;;;;;;5021754;28;20125;-82
2021/09/27 11:40:36;;;;;;;36.50;24.17;;;21.90;99.90;;;;;;5011916;28;20393;-80
2021/09/27 11:43:21;;;;;;;29.35;23.77;;;22.40;99.90;;;;;;5011722;28;20034;-81
2021/09/27 11:46:22;;;;;;;41.90;26.63;;;22.40;99.90;;;;;;5004773;28;20033;-81
2021/09/27 11:48:56;;;;;;;36.05;25.88;;;22.30;99.90;;;;;;5013839;28;20029;-81
2021/09/27 11:51:29;;;;;;;36.53;25.30;;;22.20;99.90;;;;;;5014000;28;20029;-81
2021/09/27 11:54:21;;;;;;;34.08;24.67;;;22.50;99.90;;;;;;5031241;28;20435;-80
2021/09/27 11:57:05;;;;;;;31.17;21.40;;;22.90;99.90;;;;;;5023674;28;20064;-80
2021/09/27 11:59:55;;;;;;;27.48;21.38;;;23.50;99.90;;;;;;5031824;28;20045;-81
2021/09/27 12:02:53;;;;;;;28.55;20.65;;;23.60;99.90;;;;;;5030276;28;20520;-81
2021/09/27 12:05:33;;;;;;;26.15;21.52;;;23.30;99.90;;;;;;5030613;28;20113;-81
2021/09/27 12:08:07;;;;;;;29.10;21.80;;;22.90;99.90;;;;;;5015220;28;20029;-84
2021/09/27 12:10:34;;;;;;;;;;;23.10;99.90;;;;;;5028123;28;20034;-84
2021/09/27 12:13:06;;;;;;;24.55;17.27;;;23.20;99.90;;;;;;5030335;28;20456;-83
2021/09/27 12:15:41;;;;;;;19.60;14.68;;;23.20;99.90;;;;;;5013426;28;20083;-85
2021/09/27 12:18:27;;;;;;;27.02;17.05;;;22.90;99.90;;;;;;5002293;28;20034;-83
2021/09/27 12:20:52;;;;;;;23.30;18.38;;;22.60;99.90;;;;;;4997708;28;20026;-83
2021/09/27 12:23:18;;;;;;;33.38;21.02;;;22.50;99.90;;;;;;4997401;28;20057;-85
2021/09/27 12:25:43;;;;;;;28.75;19.88;;;22.30;99.90;;;;;;4997417;28;20494;-84
2021/09/27 12:28:26;;;;;;;28.80;21.05;;;22.30;99.90;;;;;;5015560;28;20029;-85
2021/09/27 12:30:59;;;;;;;41.60;23.57;;;22.00;99.90;;;;;;5003302;28;20033;-83
2021/09/27 12:33:25;;;;;;;29.65;21.92;;;22.10;99.90;;;;;;5014843;28;20117;-85
2021/09/27 12:36:05;;;;;;;27.75;21.48;;;22.50;99.90;;;;;;4997175;28;20029;-84
2021/09/27 12:38:32;;;;;;;33.35;22.80;;;22.40;99.90;;;;;;5025598;28;20021;-84
2021/09/27 12:40:59;;;;;;;29.75;23.25;;;22.10;99.90;;;;;;5054710;28;20017;-84
2021/09/27 12:43:32;;;;;;;30.45;23.52;;;22.00;99.90;;;;;;5054690;28;20053;-84
2021/09/27 12:46:23;;;;;;;27.67;21.80;;;22.00;99.90;;;;;;5041014;28;20124;-84
2021/09/27 12:49:05;;;;;;;21.33;17.35;;;22.50;99.90;;;;;;5033887;28;20030;-85
2021/09/27 12:51:40;;;;;;;20.90;16.60;;;23.50;99.90;;;;;;5016859;28;20029;-84
2021/09/27 12:54:23;;;;;;;20.15;15.30;;;24.30;99.90;;;;;;5034017;28;20037;-85
2021/09/27 12:56:49;;;;;;;22.05;13.57;;;24.50;99.90;;;;;;5030084;28;20078;-85
2021/09/27 12:59:20;;;;;;;20.13;14.48;;;24.40;99.90;;;;;;5025459;28;20458;-85
2021/09/27 13:01:51;;;;;;;22.77;15.70;;;24.30;99.90;;;;;;5014637;28;20026;-85
2021/09/27 13:04:43;;;;;;;18.25;13.35;;;23.70;99.90;;;;;;5014186;28;20498;-84
2021/09/27 13:07:15;;;;;;;19.33;14.38;;;23.30;99.90;;;;;;5014503;28;20021;-85
2021/09/27 13:10:17;;;;;;;24.30;15.30;;;22.90;99.90;;;;;;5015497;28;20033;-84
2021/09/27 13:13:00;;;;;;;28.38;16.45;;;22.80;99.90;;;;;;5014347;28;20072;-84
2021/09/27 13:15:32;;;;;;;25.27;14.38;;;22.60;99.90;;;;;;4996261;28;20437;-84